Rancho Mirage, California
Current Conditions -  °F | °C
As of 12:53 AM on Friday 24 Oct 2014 (Local Time) from KPSP Reporting Station
Clear Clear  
Wind Chill: 76°   Ceiling: Unl
Heat Index: 76°   Visibility: 10mi
Dew Point: 34°   Wind: 9mph
Humidity: 22%   Direction: 320°NW
Pressure: 29.97"   Gusts: NA
Location:  33.77°N, 116.44°W
Report Text: KPSP 240753Z 32008KT 10SM CLR 24/01 A2997 RMK AO2 SLP144 T02440011 403500206 $
Loading
Personal Weather Stations






























Interactive Weather Map New forecast layout! Learn more

10-Day Weather Forecast

Advertisements
Track Severe Weather on mobile